createdAt,value
2022-12-18T00:00:07.673Z,-4.35
2022-12-18T00:05:11.088Z,-4.34
2022-12-18T00:10:15.364Z,-4.32
2022-12-18T00:15:18.824Z,-4.29
2022-12-18T00:20:26.716Z,-4.31
2022-12-18T00:25:30.138Z,-4.34
2022-12-18T00:30:33.496Z,-4.34
2022-12-18T00:35:36.784Z,-4.35
2022-12-18T00:40:40.215Z,-4.40
2022-12-18T00:45:43.518Z,-4.45
2022-12-18T00:50:46.963Z,-4.52
2022-12-18T00:55:50.242Z,-4.64
2022-12-18T01:00:53.885Z,-4.76
2022-12-18T01:05:57.297Z,-4.84
2022-12-18T01:11:00.607Z,-4.87
2022-12-18T01:16:04.152Z,-4.88
2022-12-18T01:21:13.811Z,-4.90
2022-12-18T01:26:17.604Z,-4.94
2022-12-18T01:31:24.347Z,-5.01
2022-12-18T01:36:30.858Z,-5.10
2022-12-18T01:41:54.193Z,-5.18
2022-12-18T01:46:57.479Z,-5.27
2022-12-18T01:52:00.804Z,-5.47
2022-12-18T01:57:04.287Z,-5.69
2022-12-18T02:02:08.954Z,-5.91
2022-12-18T02:07:36.830Z,-6.08
2022-12-18T02:12:58.317Z,-6.19
2022-12-18T02:18:11.788Z,-6.24
2022-12-18T02:23:36.733Z,-6.27
2022-12-18T02:29:15.515Z,-6.34
2022-12-18T02:34:21.459Z,-6.35
2022-12-18T02:39:28.261Z,-6.33
2022-12-18T02:44:31.590Z,-6.33
2022-12-18T02:50:12.126Z,-6.29
2022-12-18T02:55:21.693Z,-6.24
2022-12-18T03:00:34.944Z,-6.21
2022-12-18T03:05:48.644Z,-6.16
2022-12-18T03:11:01.148Z,-6.11
2022-12-18T03:16:09.486Z,-6.10
2022-12-18T03:21:14.966Z,-6.14
2022-12-18T03:26:23.172Z,-6.17
2022-12-18T03:31:29.901Z,-6.22
2022-12-18T03:36:33.552Z,-6.29
2022-12-18T03:42:01.864Z,-6.30
2022-12-18T03:47:16.481Z,-6.26
2022-12-18T03:52:36.749Z,-6.22
2022-12-18T03:57:44.282Z,-6.21
2022-12-18T04:02:53.394Z,-6.23
2022-12-18T04:07:58.242Z,-6.22
2022-12-18T04:13:01.617Z,-6.16
2022-12-18T04:18:05.039Z,-6.10
2022-12-18T04:23:08.399Z,-6.04
2022-12-18T04:28:11.892Z,-6.02
2022-12-18T04:33:15.653Z,-5.98
2022-12-18T04:38:19.421Z,-5.98
2022-12-18T04:43:22.766Z,-5.92
2022-12-18T04:48:26.875Z,-5.83
2022-12-18T04:53:30.269Z,-5.77
2022-12-18T04:58:33.622Z,-5.69
2022-12-18T05:03:38.641Z,-5.61
2022-12-18T05:08:42.252Z,-5.51
2022-12-18T05:13:46.709Z,-5.42
2022-12-18T05:18:50.003Z,-5.34
2022-12-18T05:23:53.337Z,-5.23
2022-12-18T05:28:56.613Z,-5.14
2022-12-18T05:33:59.906Z,-5.04
2022-12-18T05:39:03.345Z,-4.95
2022-12-18T05:44:07.218Z,-4.85
2022-12-18T05:49:10.518Z,-4.75
2022-12-18T05:54:13.848Z,-4.65
2022-12-18T05:59:17.078Z,-4.57
2022-12-18T06:04:20.507Z,-4.47
2022-12-18T06:09:24.512Z,-4.40
2022-12-18T06:14:27.895Z,-4.29
2022-12-18T06:19:31.181Z,-4.19
2022-12-18T06:24:34.551Z,-4.08
2022-12-18T06:29:37.812Z,-4.00
2022-12-18T06:34:41.162Z,-3.93
2022-12-18T06:39:44.839Z,-3.87
2022-12-18T06:44:48.413Z,-3.80
2022-12-18T06:49:51.734Z,-3.71
2022-12-18T06:54:55.120Z,-3.63
2022-12-18T06:59:58.375Z,-3.57
2022-12-18T07:05:07.474Z,-3.51
2022-12-18T07:10:16.950Z,-3.45
2022-12-18T07:15:20.231Z,-3.44
2022-12-18T07:20:23.609Z,-3.38
2022-12-18T07:25:26.982Z,-3.30
2022-12-18T07:30:30.401Z,-3.25
2022-12-18T07:35:35.285Z,-3.26
2022-12-18T07:40:38.832Z,-3.25
2022-12-18T07:45:44.539Z,-3.18
2022-12-18T07:50:48.218Z,-3.13
2022-12-18T07:56:25.948Z,-3.06
2022-12-18T08:01:24.007Z,-2.97
2022-12-18T08:06:27.579Z,-2.96
2022-12-18T08:11:31.340Z,-2.96
2022-12-18T08:16:34.949Z,-3.03
2022-12-18T08:21:38.999Z,-3.11
2022-12-18T08:26:45.578Z,-3.14
2022-12-18T08:31:55.575Z,-3.15
2022-12-18T08:36:58.968Z,-3.15
2022-12-18T08:42:21.374Z,-3.13
2022-12-18T08:47:24.954Z,-3.10
2022-12-18T08:52:29.521Z,-2.99
2022-12-18T08:57:32.873Z,-2.80
2022-12-18T09:02:36.453Z,-2.61
2022-12-18T09:07:40.219Z,-2.50
2022-12-18T09:12:43.635Z,-2.38
2022-12-18T09:17:47.078Z,-2.39
2022-12-18T09:22:51.099Z,-2.46
2022-12-18T09:27:54.318Z,-2.39
2022-12-18T09:32:58.653Z,-2.30
2022-12-18T09:38:01.990Z,-2.16
2022-12-18T09:43:08.205Z,-2.06
2022-12-18T09:48:21.252Z,-1.95
2022-12-18T09:53:29.772Z,-1.82
2022-12-18T09:58:42.115Z,-1.78
2022-12-18T10:03:45.849Z,-1.73
2022-12-18T10:09:16.951Z,-1.78
2022-12-18T10:14:45.922Z,-1.89
2022-12-18T10:19:55.023Z,-2.15
2022-12-18T10:25:08.541Z,-2.32
2022-12-18T10:30:18.334Z,-2.44
2022-12-18T10:35:25.522Z,-2.46
2022-12-18T10:40:29.018Z,-2.31
2022-12-18T10:45:32.469Z,-2.22
2022-12-18T10:56:06.186Z,-2.49
2022-12-18T11:01:14.768Z,-2.62
2022-12-18T11:06:23.155Z,-2.73
2022-12-18T11:11:27.063Z,-2.83
2022-12-18T11:16:36.354Z,-2.92
2022-12-18T11:21:44.261Z,-3.02
2022-12-18T11:26:47.885Z,-3.11
2022-12-18T11:31:51.327Z,-3.19
2022-12-18T11:36:56.100Z,-3.27
2022-12-18T11:42:10.261Z,-3.37
2022-12-18T11:47:27.452Z,-3.45
2022-12-18T11:52:52.866Z,-3.48
2022-12-18T11:58:31.313Z,-3.52
2022-12-18T12:04:00.642Z,-3.55
2022-12-18T12:09:22.707Z,-3.58
2022-12-18T12:14:47.595Z,-3.63
2022-12-18T12:20:13.835Z,-3.72
2022-12-18T12:25:32.192Z,-3.75
2022-12-18T12:31:03.333Z,-3.79
2022-12-18T12:36:35.714Z,-3.83
2022-12-18T12:42:01.426Z,-3.87
2022-12-18T12:47:44.008Z,-3.93
2022-12-18T12:52:52.442Z,-3.99
2022-12-18T12:58:04.992Z,-4.05
2022-12-18T13:03:25.451Z,-4.14
2022-12-18T13:08:33.288Z,-4.24
2022-12-18T13:13:58.164Z,-4.33
2022-12-18T13:19:02.424Z,-4.41
2022-12-18T13:24:28.641Z,-4.50
2022-12-18T13:29:45.102Z,-4.64
2022-12-18T13:34:48.925Z,-4.78
2022-12-18T13:39:52.379Z,-4.91
2022-12-18T13:44:55.936Z,-5.03
2022-12-18T13:50:00.382Z,-5.14
2022-12-18T13:55:08.240Z,-5.25
2022-12-18T14:00:31.492Z,-5.37
2022-12-18T14:05:40.233Z,-5.53
2022-12-18T14:10:50.796Z,-5.72
2022-12-18T14:15:55.373Z,-5.85
2022-12-18T14:21:03.278Z,-5.84
2022-12-18T14:26:24.712Z,-5.76
2022-12-18T14:31:30.708Z,-5.66
2022-12-18T14:36:34.260Z,-5.58
2022-12-18T14:41:37.736Z,-5.56
2022-12-18T14:46:44.149Z,-5.55
2022-12-18T14:51:51.552Z,-5.53
2022-12-18T14:57:06.678Z,-5.51
2022-12-18T15:02:27.069Z,-5.49
2022-12-18T15:07:46.785Z,-5.48
2022-12-18T15:12:51.762Z,-5.47
2022-12-18T15:17:59.765Z,-5.42
2022-12-18T15:23:03.091Z,-5.36
2022-12-18T15:28:37.852Z,-5.33
2022-12-18T15:33:54.329Z,-5.31
2022-12-18T15:39:05.056Z,-5.30
2022-12-18T15:44:39.195Z,-5.28
2022-12-18T15:49:42.449Z,-5.28
2022-12-18T15:55:04.789Z,-5.27
2022-12-18T16:00:13.365Z,-5.24
2022-12-18T16:05:18.993Z,-5.22
2022-12-18T16:10:22.866Z,-5.17
2022-12-18T16:15:26.199Z,-5.13
2022-12-18T16:20:29.524Z,-5.12
2022-12-18T16:25:33.147Z,-5.11
2022-12-18T16:30:37.832Z,-5.10
2022-12-18T16:35:42.035Z,-5.08
2022-12-18T16:41:05.027Z,-5.05
2022-12-18T16:46:08.426Z,-5.03
2022-12-18T16:51:11.766Z,-5.04
2022-12-18T16:56:15.043Z,-5.00
2022-12-18T17:01:18.669Z,-4.95
2022-12-18T17:06:23.127Z,-4.92
2022-12-18T17:11:28.209Z,-4.93
2022-12-18T17:16:32.762Z,-4.91
2022-12-18T17:21:37.158Z,-4.93
2022-12-18T17:26:42.130Z,-4.94
2022-12-18T17:31:45.687Z,-4.92
2022-12-18T17:36:49.039Z,-4.92
2022-12-18T17:41:52.605Z,-4.95
2022-12-18T17:46:56.557Z,-5.00
2022-12-18T17:51:59.905Z,-5.03
2022-12-18T17:57:03.227Z,-5.01
2022-12-18T18:02:10.277Z,-5.00
2022-12-18T18:07:14.396Z,-4.99
2022-12-18T18:12:36.611Z,-4.95
2022-12-18T18:17:40.114Z,-4.93
2022-12-18T18:22:45.363Z,-4.91
2022-12-18T18:27:48.706Z,-4.98
2022-12-18T18:32:53.120Z,-5.14
2022-12-18T18:37:57.848Z,-5.36
2022-12-18T18:43:01.101Z,-5.65
2022-12-18T18:48:06.288Z,-6.00
2022-12-18T18:53:09.693Z,-6.32
2022-12-18T18:58:13.153Z,-6.61
2022-12-18T19:03:17.113Z,-6.89
2022-12-18T19:08:24.098Z,-7.14
2022-12-18T19:13:30.761Z,-7.38
2022-12-18T19:18:35.609Z,-7.61
2022-12-18T19:23:39.396Z,-7.79
2022-12-18T19:28:46.461Z,-8.01
2022-12-18T19:33:49.791Z,-8.22
2022-12-18T19:38:55.136Z,-8.42
2022-12-18T19:43:58.933Z,-8.60
2022-12-18T19:49:02.654Z,-8.78
2022-12-18T19:54:06.143Z,-8.94
2022-12-18T19:59:10.334Z,-9.07
2022-12-18T20:04:13.785Z,-9.18
2022-12-18T20:09:18.423Z,-9.29
2022-12-18T20:14:23.710Z,-9.39
2022-12-18T20:19:27.383Z,-9.40
2022-12-18T20:24:34.422Z,-9.32
2022-12-18T20:29:37.858Z,-9.21
2022-12-18T20:34:41.552Z,-9.07
2022-12-18T20:39:45.319Z,-8.92
2022-12-18T20:44:48.653Z,-8.79
2022-12-18T20:49:52.133Z,-8.67
2022-12-18T20:54:55.872Z,-8.62
2022-12-18T21:00:00.929Z,-8.64
2022-12-18T21:05:05.062Z,-8.62
2022-12-18T21:10:08.821Z,-8.60
2022-12-18T21:15:12.399Z,-8.64
2022-12-18T21:20:17.999Z,-8.66
2022-12-18T21:25:22.528Z,-8.73
2022-12-18T21:30:25.950Z,-8.80
2022-12-18T21:35:29.430Z,-8.78
2022-12-18T21:40:35.856Z,-8.73
2022-12-18T21:45:41.575Z,-8.77
2022-12-18T21:50:45.914Z,-8.84
2022-12-18T21:55:58.445Z,-8.86
2022-12-18T22:01:02.378Z,-8.85
2022-12-18T22:06:09.680Z,-8.83
2022-12-18T22:11:13.840Z,-8.84
2022-12-18T22:16:18.018Z,-8.85
2022-12-18T22:21:34.222Z,-8.86
2022-12-18T22:26:40.127Z,-9.01
2022-12-18T22:31:44.297Z,-9.18
2022-12-18T22:36:49.110Z,-9.25
2022-12-18T22:41:53.166Z,-9.25
2022-12-18T22:47:06.487Z,-9.20
2022-12-18T22:52:10.812Z,-9.16
2022-12-18T22:57:14.219Z,-9.19
2022-12-18T23:02:19.422Z,-9.26
2022-12-18T23:07:23.132Z,-9.28
2022-12-18T23:12:26.381Z,-9.34
2022-12-18T23:17:30.063Z,-9.39
2022-12-18T23:22:33.326Z,-9.42
2022-12-18T23:27:36.588Z,-9.46
2022-12-18T23:32:41.641Z,-9.54
2022-12-18T23:38:02.121Z,-9.54
2022-12-18T23:43:05.447Z,-9.43
2022-12-18T23:48:08.776Z,-9.26
2022-12-18T23:53:12.914Z,-9.05
2022-12-18T23:58:21.399Z,-8.79
